Terminal Aerodrome Forecast
Issued by NWS Grand Junction, CO

Home | Current Version | Previous Version | Text Only | Print | Product List | Glossary On
Versions: 1 2 3 4 5 6 7 8 9 10 11 12 13 14 15 16
000
FTUS45 KGJT 201136
TAFGJT
TAF
KGJT 201136Z 2012/2112 09005KT P6SM SCT040 SCT110
     FM201500 10004KT P6SM FEW060
     FM202000 25004KT P6SM SCT250
     FM210000 04005KT P6SM BKN150
     FM210300 10007KT P6SM BKN100
     FM210900 09007KT P6SM SCT070=

USA.gov is the U.S. government's official web portal to all federal, state and local government web resources and services.